createdAt,value
2023-04-04T00:01:15.019Z,0
2023-04-04T00:04:40.342Z,0
2023-04-04T00:08:05.642Z,0
2023-04-04T00:11:30.974Z,0
2023-04-04T00:14:56.314Z,0
2023-04-04T00:18:21.580Z,0
2023-04-04T00:21:46.861Z,0
2023-04-04T00:25:12.171Z,0
2023-04-04T00:28:37.524Z,0
2023-04-04T00:32:02.905Z,0
2023-04-04T00:35:28.222Z,0
2023-04-04T00:38:53.519Z,0
2023-04-04T00:42:18.803Z,0
2023-04-04T00:45:44.113Z,0
2023-04-04T00:49:09.422Z,0
2023-04-04T00:52:34.734Z,0
2023-04-04T00:56:00.026Z,0
2023-04-04T00:59:25.330Z,0
2023-04-04T01:02:50.647Z,0
2023-04-04T01:06:15.987Z,0
2023-04-04T01:09:41.200Z,0
2023-04-04T01:13:06.506Z,0
2023-04-04T01:16:31.787Z,0
2023-04-04T01:19:57.049Z,0
2023-04-04T01:23:22.369Z,0
2023-04-04T01:26:47.630Z,0
2023-04-04T01:30:12.980Z,0
2023-04-04T01:33:38.254Z,0
2023-04-04T01:37:03.547Z,0
2023-04-04T01:40:28.846Z,0
2023-04-04T01:43:54.157Z,0
2023-04-04T01:47:19.424Z,0
2023-04-04T01:50:44.751Z,0
2023-04-04T01:54:10.041Z,0
2023-04-04T01:57:35.443Z,0
2023-04-04T02:01:00.599Z,0
2023-04-04T02:04:25.900Z,0
2023-04-04T02:07:51.157Z,0
2023-04-04T02:11:16.429Z,0
2023-04-04T02:14:41.750Z,0
2023-04-04T02:21:32.258Z,0
2023-04-04T02:24:57.550Z,0
2023-04-04T02:28:22.828Z,0
2023-04-04T02:31:48.099Z,0
2023-04-04T02:35:13.307Z,0
2023-04-04T02:38:38.577Z,0
2023-04-04T02:42:03.802Z,0
2023-04-04T02:45:29.101Z,0
2023-04-04T02:48:54.412Z,0
2023-04-04T02:52:19.673Z,0
2023-04-04T02:55:44.946Z,0
2023-04-04T02:59:10.229Z,0
2023-04-04T03:02:35.731Z,0
2023-04-04T03:06:00.778Z,0
2023-04-04T03:09:26.036Z,0
2023-04-04T03:12:51.290Z,0
2023-04-04T03:16:16.565Z,0
2023-04-04T03:19:41.820Z,0
2023-04-04T03:23:07.104Z,0
2023-04-04T03:26:32.357Z,0
2023-04-04T03:29:57.610Z,0
2023-04-04T03:33:22.842Z,0
2023-04-04T03:36:48.086Z,0
2023-04-04T03:40:13.393Z,0
2023-04-04T03:43:38.618Z,0
2023-04-04T03:47:03.796Z,0
2023-04-04T03:50:28.991Z,0
2023-04-04T03:53:54.200Z,0
2023-04-04T03:57:19.425Z,0
2023-04-04T04:00:44.613Z,0
2023-04-04T04:04:09.890Z,0
2023-04-04T04:07:35.043Z,0
2023-04-04T04:11:00.249Z,0
2023-04-04T04:14:25.514Z,0
2023-04-04T04:17:50.700Z,0
2023-04-04T04:21:15.898Z,0
2023-04-04T04:24:41.107Z,0
2023-04-04T04:28:06.392Z,0
2023-04-04T04:31:31.675Z,0
2023-04-04T04:34:56.763Z,0
2023-04-04T04:38:21.959Z,0
2023-04-04T04:41:47.235Z,0
2023-04-04T04:45:12.532Z,0
2023-04-04T04:48:38.095Z,0
2023-04-04T04:52:03.423Z,0
2023-04-04T04:55:28.992Z,0
2023-04-04T04:58:54.406Z,0
2023-04-04T05:02:19.836Z,0
2023-04-04T05:05:45.229Z,0
2023-04-04T05:09:10.640Z,0
2023-04-04T05:12:36.031Z,0
2023-04-04T05:16:01.516Z,0
2023-04-04T05:19:27.766Z,0
2023-04-04T05:22:53.258Z,0
2023-04-04T05:26:18.474Z,0
2023-04-04T05:29:43.698Z,0
2023-04-04T05:33:08.983Z,0
2023-04-04T05:36:34.252Z,0
2023-04-04T05:39:59.646Z,0
2023-04-04T05:43:24.947Z,6
2023-04-04T05:46:50.209Z,6
2023-04-04T05:50:15.420Z,6
2023-04-04T05:53:40.622Z,6
2023-04-04T05:57:05.854Z,6
2023-04-04T06:00:31.024Z,6
2023-04-04T06:03:56.207Z,6
2023-04-04T06:07:21.366Z,6
2023-04-04T06:10:46.577Z,6
2023-04-04T06:14:13.866Z,6
2023-04-04T06:17:37.045Z,6
2023-04-04T06:21:02.232Z,11
2023-04-04T06:24:27.458Z,11
2023-04-04T06:27:52.664Z,11
2023-04-04T06:31:17.905Z,11
2023-04-04T06:34:43.078Z,11
2023-04-04T06:38:08.300Z,17
2023-04-04T06:41:33.523Z,17
2023-04-04T06:44:58.720Z,23
2023-04-04T06:48:23.977Z,28
2023-04-04T06:51:49.361Z,28
2023-04-04T06:55:14.587Z,28
2023-04-04T06:58:39.857Z,39
2023-04-04T07:02:05.056Z,23
2023-04-04T07:05:30.319Z,23
2023-04-04T07:08:55.576Z,23
2023-04-04T07:12:20.738Z,23
2023-04-04T07:15:46.040Z,23
2023-04-04T07:19:11.263Z,23
2023-04-04T07:22:36.504Z,28
2023-04-04T07:26:01.744Z,28
2023-04-04T07:29:26.991Z,34
2023-04-04T07:32:52.288Z,39
2023-04-04T07:36:17.501Z,34
2023-04-04T07:39:42.771Z,34
2023-04-04T07:43:07.967Z,34
2023-04-04T07:46:33.354Z,39
2023-04-04T07:49:58.536Z,39
2023-04-04T07:53:23.848Z,34
2023-04-04T07:56:49.181Z,23
2023-04-04T08:00:17.358Z,28
2023-04-04T08:03:43.360Z,34
2023-04-04T08:07:08.552Z,23
2023-04-04T08:10:34.720Z,17
2023-04-04T08:14:00.032Z,23
2023-04-04T08:17:30.670Z,23
2023-04-04T08:20:56.403Z,23
2023-04-04T08:24:21.734Z,23
2023-04-04T08:27:47.252Z,23
2023-04-04T08:31:12.601Z,23
2023-04-04T08:34:37.863Z,23
2023-04-04T08:38:03.106Z,28
2023-04-04T08:41:28.373Z,28
2023-04-04T08:44:53.641Z,28
2023-04-04T08:48:18.951Z,34
2023-04-04T08:51:44.767Z,28
2023-04-04T08:55:09.473Z,28
2023-04-04T08:58:34.750Z,28
2023-04-04T09:02:01.185Z,34
2023-04-04T09:05:25.378Z,39
2023-04-04T09:08:50.681Z,34
2023-04-04T09:12:15.949Z,28
2023-04-04T09:15:41.248Z,28
2023-04-04T09:19:06.547Z,34
2023-04-04T09:22:31.825Z,34
2023-04-04T09:26:03.644Z,28
2023-04-04T09:29:22.349Z,34
2023-04-04T09:32:47.593Z,39
2023-04-04T09:36:13.166Z,34
2023-04-04T09:39:38.254Z,34
2023-04-04T09:43:03.475Z,34
2023-04-04T09:46:28.776Z,34
2023-04-04T09:49:54.015Z,39
2023-04-04T09:53:19.288Z,45
2023-04-04T09:56:44.569Z,39
2023-04-04T10:00:09.842Z,34
2023-04-04T10:03:35.124Z,34
2023-04-04T10:07:00.428Z,34
2023-04-04T10:10:25.702Z,34
2023-04-04T10:13:50.977Z,34
2023-04-04T10:17:16.195Z,34
2023-04-04T10:20:41.575Z,28
2023-04-04T10:24:06.910Z,39
2023-04-04T10:27:32.162Z,45
2023-04-04T10:31:06.123Z,45
2023-04-04T10:34:22.716Z,39
2023-04-04T10:37:47.948Z,34
2023-04-04T10:41:13.188Z,34
2023-04-04T10:44:38.419Z,45
2023-04-04T10:48:03.676Z,45
2023-04-04T10:51:28.827Z,34
2023-04-04T10:54:54.019Z,28
2023-04-04T10:58:19.185Z,34
2023-04-04T11:01:44.351Z,34
2023-04-04T11:05:09.552Z,39
2023-04-04T11:08:34.697Z,45
2023-04-04T11:11:59.910Z,28
2023-04-04T11:15:25.085Z,28
2023-04-04T11:18:50.252Z,34
2023-04-04T11:22:15.450Z,45
2023-04-04T11:25:40.706Z,39
2023-04-04T11:29:05.799Z,34
2023-04-04T11:32:30.974Z,34
2023-04-04T11:35:56.181Z,28
2023-04-04T11:39:21.387Z,28
2023-04-04T11:42:46.544Z,34
2023-04-04T11:46:11.749Z,39
2023-04-04T11:49:36.951Z,34
2023-04-04T11:53:02.232Z,28
2023-04-04T11:56:27.386Z,28
2023-04-04T11:59:52.716Z,34
2023-04-04T12:03:17.751Z,34
2023-04-04T12:06:42.887Z,39
2023-04-04T12:10:08.078Z,39
2023-04-04T12:13:33.308Z,28
2023-04-04T12:16:58.450Z,28
2023-04-04T12:20:23.621Z,28
2023-04-04T12:23:48.811Z,34
2023-04-04T12:27:14.032Z,45
2023-04-04T12:30:39.257Z,39
2023-04-04T12:34:04.384Z,28
2023-04-04T12:37:29.557Z,23
2023-04-04T12:40:54.719Z,17
2023-04-04T12:44:19.889Z,23
2023-04-04T12:47:45.178Z,23
2023-04-04T12:51:10.281Z,28
2023-04-04T12:54:35.446Z,34
2023-04-04T12:58:00.607Z,34
2023-04-04T13:01:25.817Z,39
2023-04-04T13:04:50.996Z,51
2023-04-04T13:08:16.124Z,39
2023-04-04T13:11:41.300Z,28
2023-04-04T13:15:06.480Z,17
2023-04-04T13:18:31.652Z,17
2023-04-04T13:21:56.868Z,17
2023-04-04T13:25:21.989Z,17
2023-04-04T13:28:47.230Z,23
2023-04-04T13:32:12.415Z,28
2023-04-04T13:35:37.608Z,23
2023-04-04T13:39:02.908Z,17
2023-04-04T13:42:28.180Z,68
2023-04-04T13:45:53.460Z,79
2023-04-04T13:49:18.643Z,45
2023-04-04T13:52:43.870Z,39
2023-04-04T13:59:34.435Z,34
2023-04-04T14:02:59.568Z,28
2023-04-04T14:06:24.768Z,23
2023-04-04T14:09:49.953Z,23
2023-04-04T14:13:15.190Z,23
2023-04-04T14:16:40.458Z,23
2023-04-04T14:20:05.576Z,23
2023-04-04T14:23:30.799Z,23
2023-04-04T14:26:56.026Z,23
2023-04-04T14:30:21.235Z,28
2023-04-04T14:33:46.433Z,28
2023-04-04T14:37:11.739Z,23
2023-04-04T14:40:37.185Z,23
2023-04-04T14:44:02.389Z,17
2023-04-04T14:47:28.572Z,17
2023-04-04T14:50:53.739Z,23
2023-04-04T14:54:18.955Z,28
2023-04-04T14:58:01.011Z,39
2023-04-04T15:01:09.389Z,34
2023-04-04T15:04:34.669Z,23
2023-04-04T15:40:56.465Z,0
2023-04-04T15:44:21.519Z,6
2023-04-04T15:47:46.788Z,6
2023-04-04T15:51:11.961Z,6
2023-04-04T15:54:37.174Z,23
2023-04-04T15:58:02.390Z,23
2023-04-04T16:01:27.600Z,23
2023-04-04T16:04:52.768Z,28
2023-04-04T16:08:17.973Z,28
2023-04-04T16:11:43.165Z,28
2023-04-04T16:15:08.364Z,23
2023-04-04T16:18:33.591Z,17
2023-04-04T16:21:58.800Z,6
2023-04-04T16:25:23.991Z,6
2023-04-04T16:28:49.226Z,6
2023-04-04T16:32:14.439Z,0
2023-04-04T16:35:39.596Z,0
2023-04-04T16:39:06.277Z,0
2023-04-04T16:42:31.485Z,0
2023-04-04T16:45:57.773Z,0
2023-04-04T16:49:24.069Z,0
2023-04-04T16:52:50.198Z,6
2023-04-04T16:56:15.855Z,6
2023-04-04T16:59:41.071Z,6
2023-04-04T17:03:06.310Z,0
2023-04-04T17:06:31.516Z,6
2023-04-04T17:09:56.692Z,0
2023-04-04T17:13:21.911Z,0
2023-04-04T17:16:47.142Z,0
2023-04-04T17:20:12.302Z,0
2023-04-04T17:23:37.505Z,0
2023-04-04T17:27:02.738Z,0
2023-04-04T17:30:27.853Z,0
2023-04-04T17:33:53.124Z,0
2023-04-04T17:37:18.286Z,0
2023-04-04T17:40:44.028Z,0
2023-04-04T17:44:09.373Z,0
2023-04-04T17:47:34.850Z,0
2023-04-04T17:51:00.237Z,0
2023-04-04T17:54:26.338Z,0
2023-04-04T17:57:51.815Z,0
2023-04-04T18:01:17.183Z,0
2023-04-04T18:04:42.560Z,0
2023-04-04T18:08:07.945Z,0
2023-04-04T18:11:33.348Z,0
2023-04-04T18:14:58.767Z,0
2023-04-04T18:18:24.164Z,0
2023-04-04T18:21:49.539Z,0
2023-04-04T18:25:14.907Z,0
2023-04-04T18:28:40.232Z,0
2023-04-04T18:32:05.527Z,0
2023-04-04T18:35:30.803Z,0
2023-04-04T18:38:56.068Z,0
2023-04-04T18:42:21.321Z,0
2023-04-04T18:45:46.642Z,0
2023-04-04T18:49:11.911Z,0
2023-04-04T18:52:37.193Z,0
2023-04-04T18:56:02.375Z,0
2023-04-04T18:59:27.663Z,0
2023-04-04T19:02:52.892Z,0
2023-04-04T19:06:18.022Z,0
2023-04-04T19:09:43.144Z,0
2023-04-04T19:13:08.306Z,0
2023-04-04T19:16:33.472Z,0
2023-04-04T19:19:58.646Z,0
2023-04-04T19:23:23.856Z,0
2023-04-04T19:26:48.997Z,0
2023-04-04T19:30:14.192Z,0
2023-04-04T19:33:39.333Z,0
2023-04-04T19:37:04.506Z,0
2023-04-04T19:40:29.704Z,0
2023-04-04T19:43:54.835Z,0
2023-04-04T19:47:20.012Z,0
2023-04-04T19:50:45.176Z,0
2023-04-04T19:54:10.351Z,0
2023-04-04T19:57:35.563Z,0
2023-04-04T20:01:00.723Z,0
2023-04-04T20:04:25.928Z,0
2023-04-04T20:07:51.086Z,0
2023-04-04T20:11:16.440Z,0
2023-04-04T20:14:41.646Z,0
2023-04-04T20:18:06.817Z,0
2023-04-04T20:21:31.948Z,0
2023-04-04T20:24:57.111Z,0
2023-04-04T20:28:22.272Z,0
2023-04-04T20:31:47.501Z,0
2023-04-04T20:35:12.600Z,0
2023-04-04T20:38:37.769Z,0
2023-04-04T20:42:02.946Z,0
2023-04-04T20:45:28.250Z,0
2023-04-04T20:48:53.321Z,0
2023-04-04T20:52:18.445Z,0
2023-04-04T20:55:44.317Z,0
2023-04-04T20:59:08.810Z,0
2023-04-04T21:02:33.965Z,0
2023-04-04T21:05:59.148Z,0
2023-04-04T21:09:24.281Z,0
2023-04-04T21:12:49.416Z,0
2023-04-04T21:16:14.655Z,0
2023-04-04T21:19:39.737Z,0
2023-04-04T21:23:04.901Z,0
2023-04-04T21:26:30.017Z,0
2023-04-04T21:29:55.186Z,0
2023-04-04T21:33:20.332Z,0
2023-04-04T21:36:45.497Z,0
2023-04-04T21:40:10.687Z,0
2023-04-04T21:43:35.796Z,0
2023-04-04T21:47:00.975Z,0
2023-04-04T21:50:26.142Z,0
2023-04-04T21:53:51.279Z,0
2023-04-04T21:57:16.474Z,0
2023-04-04T22:00:41.808Z,0
2023-04-04T22:04:06.775Z,0
2023-04-04T22:07:31.916Z,0
2023-04-04T22:10:57.651Z,0
2023-04-04T22:14:22.295Z,0
2023-04-04T22:17:47.451Z,0
2023-04-04T22:21:12.590Z,0
2023-04-04T22:24:37.740Z,0
2023-04-04T22:28:02.888Z,0
2023-04-04T22:31:28.088Z,0
2023-04-04T22:34:53.218Z,0
2023-04-04T22:38:18.375Z,0
2023-04-04T22:41:43.558Z,0
2023-04-04T22:45:08.750Z,0
2023-04-04T22:48:33.941Z,0
2023-04-04T22:51:59.052Z,0
2023-04-04T22:55:24.219Z,0
2023-04-04T22:58:49.370Z,0
2023-04-04T23:02:14.543Z,0
2023-04-04T23:05:39.727Z,0
2023-04-04T23:09:04.854Z,0
2023-04-04T23:12:29.994Z,0
2023-04-04T23:15:55.174Z,0
2023-04-04T23:19:20.326Z,0
2023-04-04T23:22:45.481Z,0
2023-04-04T23:26:10.603Z,0
2023-04-04T23:29:35.753Z,0
2023-04-04T23:33:00.928Z,0
2023-04-04T23:36:26.109Z,0
2023-04-04T23:39:51.252Z,0
2023-04-04T23:43:16.363Z,0
2023-04-04T23:46:41.559Z,0
2023-04-04T23:50:06.680Z,0
2023-04-04T23:53:31.879Z,0
2023-04-04T23:56:57.036Z,0
